Time;durP1;ratioP1;P1;durP2;ratioP2;P2;SDS_P1;SDS_P2;PMS_P1;PMS_P2;Temp;Humidity;BMP_temperature;BMP_pressure;BME280_temperature;BME280_humidity;BME280_pressure;Samples;Min_cycle;Max_cycle;Signal;HPM_P1;HPM_P2
2022/10/22 00:02:18;;;;;;;34.17;32.50;;;14.50;99.90;;;;;;4972160;28;20455;-72
2022/10/22 00:04:45;;;;;;;33.60;32.00;;;14.50;99.90;;;;;;4971987;28;20496;-71
2022/10/22 00:07:12;;;;;;;32.00;30.60;;;14.20;99.90;;;;;;4972241;28;20448;-71
2022/10/22 00:09:40;;;;;;;33.20;31.70;;;14.40;99.90;;;;;;4972180;28;20455;-72
2022/10/22 00:12:07;;;;;;;33.57;32.03;;;14.10;99.90;;;;;;4971769;28;20521;-71
2022/10/22 00:14:34;;;;;;;34.07;32.47;;;14.40;99.90;;;;;;4971702;28;20444;-73
2022/10/22 00:17:01;;;;;;;34.07;32.37;;;14.50;99.90;;;;;;4971653;28;20455;-74
2022/10/22 00:19:28;;;;;;;33.27;31.70;;;;;;;;;;4971976;28;20456;-71
2022/10/22 00:21:55;;;;;;;33.60;32.00;;;14.20;99.90;;;;;;4971856;28;20455;-72
2022/10/22 00:24:22;;;;;;;32.50;31.00;;;;;;;;;;4971393;28;20842;-72
2022/10/22 00:26:50;;;;;;;32.37;30.60;;;14.30;99.90;;;;;;4971502;28;20451;-72
2022/10/22 00:29:18;;;;;;;33.20;31.50;;;14.00;99.90;;;;;;4973905;28;20475;-74
2022/10/22 00:31:48;;;;;;;31.73;30.07;;;14.00;99.90;;;;;;4990770;28;20479;-74
2022/10/22 00:34:15;;;;;;;32.27;30.30;;;;;;;;;;4990833;28;20455;-72
2022/10/22 00:36:42;;;;;;;31.17;29.67;;;14.30;99.90;;;;;;4991154;28;20451;-74
2022/10/22 00:39:10;;;;;;;31.33;29.73;;;;;;;;;;4991005;28;20458;-73
2022/10/22 00:41:37;;;;;;;31.10;29.60;;;;;;;;;;4990501;28;21019;-73
2022/10/22 00:44:07;;;;;;;30.97;29.47;;;14.10;99.90;;;;;;4989930;28;20466;-73
2022/10/22 00:46:34;;;;;;;31.00;29.43;;;;;;;;;;4990550;28;20891;-74
2022/10/22 00:49:03;;;;;;;31.73;30.23;;;14.40;99.90;;;;;;4990458;28;20447;-73
2022/10/22 00:51:33;;;;;;;31.63;30.13;;;13.90;99.90;;;;;;4990650;28;20845;-71
2022/10/22 00:54:04;;;;;;;31.87;30.17;;;13.90;99.90;;;;;;4990496;28;20451;-71
2022/10/22 00:56:31;;;;;;;31.10;29.50;;;14.10;99.90;;;;;;4990473;28;20457;-72
2022/10/22 00:59:00;;;;;;;31.70;30.10;;;14.20;99.90;;;;;;4990539;28;20454;-72
2022/10/22 01:01:31;;;;;;;32.13;30.53;;;14.10;99.90;;;;;;4990724;28;20786;-72
2022/10/22 01:03:58;;;;;;;32.53;30.83;;;14.10;99.90;;;;;;4991122;28;20450;-72
2022/10/22 01:06:27;;;;;;;32.07;30.50;;;14.20;99.90;;;;;;4990806;28;20490;-73
2022/10/22 01:09:02;;;;;;;33.27;31.47;;;14.20;99.90;;;;;;4990464;28;20457;-74
2022/10/22 01:11:35;;;;;;;33.10;31.20;;;14.60;99.90;;;;;;4990266;28;20509;-74
2022/10/22 01:14:15;;;;;;;33.07;30.83;;;14.40;99.90;;;;;;4990195;28;20461;-73
2022/10/22 01:16:52;;;;;;;31.33;29.83;;;13.90;99.90;;;;;;4990504;28;20449;-71
2022/10/22 01:19:43;;;;;;;32.83;31.13;;;14.10;99.90;;;;;;4990446;28;20823;-72
2022/10/22 01:22:18;;;;;;;32.70;31.10;;;14.10;99.90;;;;;;4987025;28;20813;-72
2022/10/22 01:24:57;;;;;;;31.87;30.37;;;14.10;99.90;;;;;;4989986;28;20497;-72
2022/10/22 01:27:31;;;;;;;31.47;29.97;;;14.10;99.90;;;;;;4989876;28;20976;-72
2022/10/22 01:30:03;;;;;;;32.00;30.00;;;14.00;99.90;;;;;;4989907;28;20841;-72
2022/10/22 01:32:34;;;;;;;31.20;29.70;;;13.80;99.90;;;;;;4990015;28;20454;-72
2022/10/22 01:35:04;;;;;;;30.20;28.70;;;14.00;99.90;;;;;;4989832;28;20446;-73
2022/10/22 01:37:34;;;;;;;31.80;30.20;;;13.80;99.90;;;;;;4989983;28;20454;-72
2022/10/22 01:40:02;;;;;;;30.93;29.30;;;14.00;99.90;;;;;;4989712;28;20458;-72
2022/10/22 01:42:28;;;;;;;31.97;30.07;;;14.10;99.90;;;;;;4989836;28;20459;-73
2022/10/22 01:44:55;;;;;;;30.87;29.40;;;;;;;;;;4989812;28;20491;-72
2022/10/22 01:47:38;;;;;;;30.90;29.30;;;14.20;99.90;;;;;;4989631;28;20455;-72
2022/10/22 01:50:27;;;;;;;30.83;29.33;;;13.80;99.90;;;;;;4989645;28;20450;-72
2022/10/22 01:53:25;;;;;;;30.43;28.93;;;14.20;99.90;;;;;;4989834;28;20462;-71
2022/10/22 01:56:05;;;;;;;29.40;28.10;;;14.10;99.90;;;;;;4989778;28;20505;-71
2022/10/22 01:58:42;;;;;;;29.70;28.27;;;13.90;99.90;;;;;;4989664;28;20805;-71
2022/10/22 02:01:17;;;;;;;28.47;26.97;;;14.00;99.90;;;;;;4989668;28;20458;-71
2022/10/22 02:03:52;;;;;;;28.80;27.40;;;14.20;99.90;;;;;;4989869;28;20446;-72
2022/10/22 02:06:22;;;;;;;28.03;26.40;;;14.10;99.90;;;;;;4989554;28;20482;-72
2022/10/22 02:08:50;;;;;;;28.50;27.00;;;14.20;99.90;;;;;;4989614;28;20855;-72
2022/10/22 02:11:17;;;;;;;26.57;25.30;;;14.10;99.90;;;;;;4989470;28;20447;-73
2022/10/22 02:13:48;;;;;;;26.80;25.40;;;14.10;99.90;;;;;;4989944;28;20451;-73
2022/10/22 02:16:20;;;;;;;26.70;25.20;;;14.10;99.90;;;;;;4989609;28;20454;-73
2022/10/22 02:18:51;;;;;;;26.13;24.93;;;14.00;99.90;;;;;;4989331;28;20467;-73
2022/10/22 02:21:18;;;;;;;26.37;25.07;;;14.00;99.90;;;;;;4989424;28;20459;-73
2022/10/22 02:23:45;;;;;;;25.90;24.70;;;14.20;99.90;;;;;;4989587;28;20447;-73
2022/10/22 02:26:20;;;;;;;25.27;24.03;;;14.40;99.90;;;;;;4989738;28;21012;-73
2022/10/22 02:28:53;;;;;;;23.90;22.80;;;14.10;99.90;;;;;;4989273;28;20525;-73
2022/10/22 02:31:24;;;;;;;21.60;20.70;;;14.20;99.90;;;;;;4989130;28;21048;-72
2022/10/22 02:33:57;;;;;;;20.23;19.43;;;14.10;99.90;;;;;;4989557;28;20447;-73
2022/10/22 02:36:24;;;;;;;19.07;18.23;;;14.10;99.90;;;;;;4989446;28;20942;-73
2022/10/22 02:38:52;;;;;;;18.03;17.30;;;14.20;99.90;;;;;;4989303;28;20454;-73
2022/10/22 02:41:19;;;;;;;17.70;16.90;;;14.40;99.90;;;;;;4989307;28;20764;-72
2022/10/22 02:43:51;;;;;;;16.50;15.90;;;14.20;99.90;;;;;;4989158;28;20454;-73
2022/10/22 02:46:18;;;;;;;16.03;15.43;;;14.20;99.90;;;;;;4989204;28;20515;-73
2022/10/22 02:48:45;;;;;;;16.60;15.33;;;14.40;99.90;;;;;;4989130;28;20463;-72
2022/10/22 02:51:13;;;;;;;17.00;16.30;;;14.40;99.90;;;;;;4989239;28;20451;-73
2022/10/22 02:53:40;;;;;;;15.67;15.03;;;14.30;99.90;;;;;;4989183;28;20447;-74
2022/10/22 02:56:07;;;;;;;15.57;14.97;;;14.60;99.90;;;;;;4989098;28;20453;-73
2022/10/22 02:58:34;;;;;;;14.97;14.47;;;14.50;99.90;;;;;;4988802;28;20455;-73
2022/10/22 03:01:01;;;;;;;15.83;15.07;;;14.50;99.90;;;;;;4989147;28;20455;-73
2022/10/22 03:03:27;;;;;;;15.87;15.20;;;14.60;99.90;;;;;;4989396;28;20815;-73
2022/10/22 03:05:54;;;;;;;15.23;14.73;;;14.70;99.90;;;;;;4990097;28;20482;-73
2022/10/22 03:08:22;;;;;;;15.60;15.00;;;14.70;99.90;;;;;;4992373;28;20446;-73
2022/10/22 03:10:49;;;;;;;15.37;14.77;;;;;;;;;;4992301;28;20447;-73
2022/10/22 03:13:16;;;;;;;15.27;14.77;;;14.50;99.90;;;;;;4992607;28;20481;-74
2022/10/22 03:15:43;;;;;;;14.57;14.03;;;14.60;99.90;;;;;;4992809;28;20458;-73
2022/10/22 03:18:10;;;;;;;15.00;14.40;;;14.60;99.90;;;;;;4992652;28;20442;-75
2022/10/22 03:20:36;;;;;;;14.50;14.00;;;14.60;99.90;;;;;;4992297;28;20813;-75
2022/10/22 03:23:03;;;;;;;14.60;14.10;;;14.80;99.90;;;;;;4988779;28;20444;-73
2022/10/22 03:25:33;;;;;;;15.00;14.20;;;14.60;99.90;;;;;;4980290;28;20482;-74
2022/10/22 03:28:03;;;;;;;14.83;14.33;;;14.60;99.90;;;;;;4981943;28;20510;-73
2022/10/22 03:30:30;;;;;;;14.77;14.17;;;14.50;99.90;;;;;;4981728;28;20479;-73
2022/10/22 03:32:57;;;;;;;14.60;14.10;;;15.10;99.90;;;;;;4980571;28;20451;-73
2022/10/22 03:35:24;;;;;;;14.57;13.90;;;14.60;99.90;;;;;;4981490;28;20447;-74
2022/10/22 03:37:51;;;;;;;15.23;14.63;;;14.70;99.90;;;;;;4981747;28;20448;-74
2022/10/22 03:40:18;;;;;;;14.67;14.17;;;14.50;99.90;;;;;;4979926;28;20435;-74
2022/10/22 03:42:47;;;;;;;14.70;14.20;;;14.40;99.90;;;;;;4980876;28;20477;-73
2022/10/22 03:45:13;;;;;;;14.37;13.87;;;14.50;99.90;;;;;;4981915;28;20443;-73
2022/10/22 03:47:40;;;;;;;14.40;13.90;;;14.70;99.90;;;;;;4980445;28;20930;-74
2022/10/22 03:50:08;;;;;;;14.80;14.30;;;14.40;99.90;;;;;;4980637;28;20447;-75
2022/10/22 03:52:37;;;;;;;15.17;14.53;;;14.60;99.90;;;;;;4981708;28;20451;-74
2022/10/22 03:55:04;;;;;;;15.10;14.50;;;14.90;99.90;;;;;;4976748;28;20452;-74
2022/10/22 03:57:31;;;;;;;15.40;14.57;;;14.60;99.90;;;;;;4972039;28;20456;-74
2022/10/22 03:59:59;;;;;;;15.00;14.30;;;14.60;99.90;;;;;;4972571;28;20456;-73
2022/10/22 04:02:26;;;;;;;15.10;14.43;;;14.50;99.90;;;;;;4977824;28;20452;-73
2022/10/22 04:04:53;;;;;;;15.70;14.90;;;14.50;99.90;;;;;;4980143;28;20446;-73
2022/10/22 04:07:19;;;;;;;14.80;14.20;;;14.50;99.90;;;;;;4981299;28;20491;-73
2022/10/22 04:09:46;;;;;;;14.50;14.00;;;13.70;99.90;;;;;;4979610;28;20825;-73
2022/10/22 04:12:13;;;;;;;14.77;14.27;;;14.60;99.90;;;;;;4980622;28;20454;-74
2022/10/22 04:14:40;;;;;;;14.37;13.87;;;14.60;99.90;;;;;;4981530;28;20447;-73
2022/10/22 04:17:08;;;;;;;15.20;14.60;;;14.60;99.90;;;;;;4978441;28;20436;-74
2022/10/22 04:19:34;;;;;;;15.30;14.70;;;14.50;99.90;;;;;;4979886;28;20455;-74
2022/10/22 04:22:01;;;;;;;15.03;14.53;;;14.70;99.90;;;;;;4981098;28;20439;-74
2022/10/22 04:24:30;;;;;;;15.40;14.77;;;14.60;99.90;;;;;;4979928;28;20452;-74
2022/10/22 04:26:56;;;;;;;15.77;15.17;;;14.60;99.90;;;;;;4979690;28;20491;-74
2022/10/22 04:29:24;;;;;;;15.03;14.40;;;14.50;99.90;;;;;;4980974;28;20471;-73
2022/10/22 04:31:50;;;;;;;14.50;13.80;;;14.40;99.90;;;;;;4979465;28;20484;-72
2022/10/22 04:34:19;;;;;;;15.30;14.70;;;14.40;99.90;;;;;;4979146;28;20439;-72
2022/10/22 04:36:47;;;;;;;14.83;14.23;;;14.10;99.90;;;;;;4979101;28;20444;-72
2022/10/22 04:39:14;;;;;;;14.93;14.43;;;13.90;99.90;;;;;;4979689;28;20956;-72
2022/10/22 04:41:41;;;;;;;14.40;13.90;;;14.40;99.90;;;;;;4980905;28;20451;-73
2022/10/22 04:44:08;;;;;;;14.67;13.97;;;14.30;99.90;;;;;;4971233;28;20456;-72
2022/10/22 04:46:35;;;;;;;14.50;14.00;;;14.30;99.90;;;;;;4971071;28;20510;-73
2022/10/22 04:49:03;;;;;;;14.67;14.17;;;14.40;99.90;;;;;;4971280;28;20456;-73
2022/10/22 04:51:33;;;;;;;14.70;14.10;;;14.30;99.90;;;;;;4971207;28;20530;-73
2022/10/22 04:54:00;;;;;;;15.00;14.50;;;14.30;99.90;;;;;;4971094;28;20463;-73
2022/10/22 04:56:29;;;;;;;15.80;15.10;;;14.40;99.90;;;;;;4971580;28;20455;-73
2022/10/22 04:58:58;;;;;;;15.53;14.83;;;14.10;99.90;;;;;;4971415;28;20964;-72
2022/10/22 05:01:26;;;;;;;15.50;14.90;;;14.20;99.90;;;;;;4971317;28;20448;-72
2022/10/22 05:03:55;;;;;;;15.03;14.53;;;14.30;99.90;;;;;;4971213;28;20563;-73
2022/10/22 05:06:23;;;;;;;14.77;14.20;;;14.20;99.90;;;;;;4970843;28;20571;-72
2022/10/22 05:08:56;;;;;;;14.77;14.03;;;14.20;99.90;;;;;;4970934;28;20686;-71
2022/10/22 05:11:26;;;;;;;14.80;14.20;;;14.30;99.90;;;;;;4971118;28;20793;-74
2022/10/22 05:13:53;;;;;;;15.10;14.33;;;14.40;99.90;;;;;;4971024;28;20460;-74
2022/10/22 05:16:20;;;;;;;14.70;14.00;;;14.30;99.90;;;;;;4970722;28;20443;-74
2022/10/22 05:18:47;;;;;;;15.17;14.40;;;14.30;99.90;;;;;;4970712;28;20452;-73
2022/10/22 05:21:16;;;;;;;15.53;14.80;;;14.40;99.90;;;;;;4971344;28;20447;-74
2022/10/22 05:23:43;;;;;;;15.07;14.43;;;14.30;99.90;;;;;;4970859;28;20463;-73
2022/10/22 05:26:13;;;;;;;14.03;13.53;;;14.10;99.90;;;;;;4970847;28;20483;-73
2022/10/22 05:28:40;;;;;;;13.50;13.00;;;;;;;;;;4970469;28;20490;-74
2022/10/22 05:31:08;;;;;;;13.93;13.33;;;14.50;99.90;;;;;;4970492;28;20840;-74
2022/10/22 05:33:37;;;;;;;13.47;12.97;;;14.50;99.90;;;;;;4970400;28;21081;-73
2022/10/22 05:36:06;;;;;;;13.73;13.23;;;14.60;99.90;;;;;;4970589;28;20463;-74
2022/10/22 05:38:34;;;;;;;13.50;13.00;;;14.70;99.90;;;;;;4970356;28;20858;-74
2022/10/22 05:41:02;;;;;;;13.50;13.10;;;14.70;99.90;;;;;;4970075;28;20467;-74
2022/10/22 05:43:33;;;;;;;13.70;13.17;;;14.90;99.90;;;;;;4970624;28;20452;-73
2022/10/22 05:46:02;;;;;;;13.50;12.97;;;15.20;99.90;;;;;;4970696;28;20869;-75
2022/10/22 05:48:29;;;;;;;13.90;13.40;;;15.00;99.90;;;;;;4970604;28;20868;-73
2022/10/22 05:50:56;;;;;;;13.03;12.53;;;15.00;99.90;;;;;;4970548;28;20540;-73
2022/10/22 05:53:23;;;;;;;13.67;13.10;;;;;;;;;;4970379;28;20942;-74
2022/10/22 05:55:50;;;;;;;13.20;12.70;;;14.80;99.90;;;;;;4970299;28;20854;-73
2022/10/22 05:58:16;;;;;;;12.73;12.33;;;15.10;99.90;;;;;;4974873;28;20562;-73
2022/10/22 06:00:45;;;;;;;14.20;13.67;;;15.50;99.90;;;;;;4978714;28;20546;-73
2022/10/22 06:03:11;;;;;;;15.47;14.53;;;15.10;99.90;;;;;;4978022;28;20456;-73
2022/10/22 06:05:38;;;;;;;15.10;14.50;;;15.00;99.90;;;;;;4977838;28;20448;-73
2022/10/22 06:08:05;;;;;;;15.13;14.33;;;14.90;99.90;;;;;;4978435;28;21056;-73
2022/10/22 06:10:32;;;;;;;14.60;14.00;;;14.80;99.90;;;;;;4979556;28;20458;-73
2022/10/22 06:13:00;;;;;;;14.60;14.00;;;17.20;99.90;;;;;;4977827;28;20447;-74
2022/10/22 06:15:27;;;;;;;13.43;12.90;;;14.90;99.90;;;;;;4978251;28;20554;-75
2022/10/22 06:17:55;;;;;;;14.13;13.53;;;15.00;99.90;;;;;;4979612;28;20446;-75
2022/10/22 06:20:22;;;;;;;15.03;14.33;;;14.90;99.90;;;;;;4978034;28;20447;-75
2022/10/22 06:22:48;;;;;;;13.80;13.30;;;14.80;99.90;;;;;;4977842;28;20483;-75
2022/10/22 06:25:15;;;;;;;15.90;14.83;;;15.00;99.90;;;;;;4979226;28;20446;-73
2022/10/22 06:27:42;;;;;;;15.77;14.90;;;14.80;99.90;;;;;;4978144;28;20487;-74
2022/10/22 06:30:09;;;;;;;15.30;14.60;;;14.70;99.90;;;;;;4977843;28;20485;-75
2022/10/22 06:32:36;;;;;;;15.57;14.87;;;14.40;99.90;;;;;;4979232;28;20450;-74
2022/10/22 06:35:05;;;;;;;15.60;14.80;;;14.80;99.90;;;;;;4977822;28;20448;-74
2022/10/22 06:37:32;;;;;;;15.30;14.57;;;14.40;99.90;;;;;;4977347;28;20454;-74
2022/10/22 06:40:02;;;;;;;15.50;14.40;;;14.30;99.90;;;;;;4977874;28;20443;-73
2022/10/22 06:42:29;;;;;;;15.07;14.17;;;14.70;99.90;;;;;;4981598;28;20459;-74
2022/10/22 06:44:55;;;;;;;15.10;14.40;;;14.50;99.90;;;;;;4978283;28;20470;-74
2022/10/22 06:47:22;;;;;;;14.73;14.13;;;14.70;99.90;;;;;;4973277;28;20491;-74
2022/10/22 06:49:54;;;;;;;13.90;13.40;;;14.60;99.90;;;;;;4973689;28;20458;-74
2022/10/22 06:52:22;;;;;;;14.80;14.10;;;14.60;99.90;;;;;;4973573;28;20462;-74
2022/10/22 06:54:49;;;;;;;13.70;13.20;;;14.70;99.90;;;;;;4972923;28;20453;-74
2022/10/22 06:57:15;;;;;;;13.40;12.90;;;14.80;99.90;;;;;;4973197;28;20979;-76
2022/10/22 06:59:42;;;;;;;13.23;12.83;;;;;;;;;;4973714;28;20462;-75
2022/10/22 07:02:09;;;;;;;13.43;13.00;;;14.90;99.90;;;;;;4973406;28;20462;-74
2022/10/22 07:04:36;;;;;;;14.73;13.80;;;15.10;99.90;;;;;;4975208;28;20514;-88
2022/10/22 07:07:03;;;;;;;14.33;13.73;;;;;;;;;;4973100;28;21036;-88
2022/10/22 07:09:32;;;;;;;14.50;13.80;;;15.10;99.90;;;;;;4972904;28;20545;-89
2022/10/22 07:11:59;;;;;;;13.87;13.47;;;;;;;;;;4974728;28;20455;-89
2022/10/22 07:14:26;;;;;;;14.50;13.93;;;15.20;99.90;;;;;;4975158;28;20532;-89
2022/10/22 07:16:53;;;;;;;14.93;14.20;;;15.10;99.90;;;;;;4974713;28;20470;-91
2022/10/22 07:19:22;;;;;;;13.90;13.50;;;15.40;99.90;;;;;;4975163;28;20679;-89
2022/10/22 07:21:49;;;;;;;14.03;13.53;;;;;;;;;;4974667;28;21001;-90
2022/10/22 07:24:16;;;;;;;18.43;14.47;;;15.70;99.90;;;;;;4974516;28;20499;-87
2022/10/22 07:26:45;;;;;;;14.40;13.70;;;15.60;99.90;;;;;;4974403;28;20491;-88
2022/10/22 07:55:27;;;;;;;14.67;14.07;;;;;;;;;;4958910;28;20431;-88
2022/10/22 07:58:18;;;;;;;14.97;14.17;;;16.30;99.90;;;;;;4992028;28;20447;-87
2022/10/22 08:00:49;;;;;;;16.13;15.37;;;;;;;;;;4937595;28;20801;-87
2022/10/22 08:06:22;;;;;;;14.40;13.53;;;;;;;;;;4986949;28;20518;-88
2022/10/22 08:12:51;;;;;;;15.37;14.70;;;16.50;99.90;;;;;;4858809;29;20547;-90
2022/10/22 08:19:50;;;;;;;17.43;16.53;;;16.20;99.90;;;;;;4716010;30;20453;-89
2022/10/22 08:22:20;;;;;;;15.90;15.30;;;;;;;;;;4805493;29;20479;-85
2022/10/22 08:31:56;;;;;;;16.47;15.67;;;;;;;;;;4804017;29;20492;-91
2022/10/22 08:37:39;;;;;;;13.63;13.03;;;17.60;99.90;;;;;;4877231;29;20483;-91
2022/10/22 09:27:22;;;;;;;13.27;12.67;;;23.60;99.90;;;;;;4943716;29;20484;-86
2022/10/22 09:29:56;;;;;;;14.17;13.43;;;;;;;;;;4939406;29;20536;-88
2022/10/22 09:32:47;;;;;;;13.40;12.60;;;23.60;99.90;;;;;;4937016;29;20461;-87
2022/10/22 09:35:35;;;;;;;12.70;12.20;;;24.00;99.90;;;;;;4940758;29;20465;-87
2022/10/22 09:38:08;;;;;;;12.97;12.43;;;24.20;99.90;;;;;;4943818;29;20454;-86
2022/10/22 09:40:44;;;;;;;12.27;11.77;;;23.80;99.90;;;;;;4952068;28;20651;-86
2022/10/22 09:43:13;;;;;;;11.80;11.43;;;24.00;99.90;;;;;;4999337;28;20450;-87
2022/10/22 09:45:41;;;;;;;12.70;11.80;;;24.00;99.90;;;;;;5003193;28;20447;-86
2022/10/22 09:48:15;;;;;;;12.43;11.80;;;23.70;99.90;;;;;;5004338;28;20573;-85
2022/10/22 09:50:45;;;;;;;12.63;12.13;;;23.60;99.90;;;;;;5005878;28;20464;-85
2022/10/22 09:53:17;;;;;;;13.60;13.10;;;23.60;99.90;;;;;;5003545;28;20459;-85
2022/10/22 09:55:50;;;;;;;12.60;12.00;;;23.60;99.90;;;;;;5001452;28;20450;-84
2022/10/22 09:58:18;;;;;;;12.03;11.60;;;24.20;99.90;;;;;;4995818;28;20455;-84
2022/10/22 10:00:47;;;;;;;12.50;11.90;;;24.40;99.90;;;;;;4998968;28;20447;-85
2022/10/22 10:03:18;;;;;;;12.90;12.40;;;25.40;99.40;;;;;;5002455;28;20522;-83
2022/10/22 10:05:48;;;;;;;11.90;11.50;;;25.70;97.40;;;;;;4994571;28;20455;-84
2022/10/22 10:08:17;;;;;;;12.40;12.00;;;25.80;97.40;;;;;;4999353;28;20537;-84
2022/10/22 10:10:47;;;;;;;12.20;11.80;;;25.80;97.00;;;;;;4998228;28;20451;-84
2022/10/22 10:13:43;;;;;;;12.70;12.30;;;25.60;97.70;;;;;;4999825;28;20501;-85
2022/10/22 10:16:24;;;;;;;12.23;11.83;;;26.60;96.30;;;;;;5000078;28;20451;-85
2022/10/22 10:19:11;;;;;;;13.50;12.90;;;27.60;94.90;;;;;;5000827;28;20443;-84
2022/10/22 10:21:47;;;;;;;13.00;12.30;;;27.90;92.30;;;;;;5000179;28;20451;-84
2022/10/22 10:24:22;;;;;;;12.20;11.80;;;27.20;93.20;;;;;;4995473;28;20808;-85
2022/10/22 10:26:56;;;;;;;13.20;12.67;;;26.20;95.30;;;;;;4995809;28;20466;-84
2022/10/22 10:29:36;;;;;;;12.43;12.03;;;25.90;96.30;;;;;;4991813;28;20489;-84
2022/10/22 10:32:18;;;;;;;12.60;12.07;;;25.80;96.70;;;;;;4992034;28;20458;-83
2022/10/22 10:34:52;;;;;;;12.97;12.47;;;25.90;95.30;;;;;;4992313;28;20454;-84
2022/10/22 10:37:23;;;;;;;12.87;12.47;;;26.40;95.10;;;;;;4991706;28;20461;-84
2022/10/22 10:40:14;;;;;;;12.23;11.80;;;27.20;94.30;;;;;;4991936;28;20869;-82
2022/10/22 10:42:46;;;;;;;12.60;12.20;;;29.20;91.70;;;;;;4992368;28;20450;-83
2022/10/22 10:45:19;;;;;;;12.80;12.40;;;30.20;86.40;;;;;;4992681;28;20454;-82
2022/10/22 10:48:21;;;;;;;14.23;13.47;;;30.10;83.50;;;;;;4991890;28;20495;-82
2022/10/22 10:51:06;;;;;;;13.10;12.43;;;31.10;79.20;;;;;;4992306;28;20922;-81
2022/10/22 10:53:47;;;;;;;13.10;12.70;;;29.80;81.30;;;;;;4991891;28;21004;-82
2022/10/22 10:56:27;;;;;;;13.10;12.50;;;28.80;85.20;;;;;;4992594;28;20454;-82
2022/10/22 10:59:04;;;;;;;13.47;12.87;;;28.80;91.30;;;;;;4992235;28;20439;-82
2022/10/22 11:01:39;;;;;;;13.33;12.70;;;28.90;86.70;;;;;;4974422;28;20948;-82
2022/10/22 11:04:41;;;;;;;12.33;11.93;;;28.50;85.50;;;;;;4991857;28;20454;-83
2022/10/22 11:07:12;;;;;;;13.10;12.60;;;28.40;83.40;;;;;;4991902;28;20933;-83
2022/10/22 11:09:44;;;;;;;13.20;12.70;;;28.40;84.10;;;;;;4992065;28;20447;-83
2022/10/22 11:12:17;;;;;;;13.53;12.93;;;29.10;80.90;;;;;;4991885;28;20457;-84
2022/10/22 11:14:55;;;;;;;13.50;13.10;;;30.00;77.50;;;;;;4992140;28;20458;-84
2022/10/22 11:17:26;;;;;;;13.50;13.10;;;31.00;73.70;;;;;;4991585;28;20821;-83
2022/10/22 11:20:00;;;;;;;13.13;12.73;;;31.40;72.90;;;;;;4991305;28;20480;-84
2022/10/22 11:22:33;;;;;;;14.20;13.70;;;31.50;71.50;;;;;;4992048;28;20474;-84
2022/10/22 11:25:04;;;;;;;13.83;13.23;;;31.60;71.10;;;;;;4991506;28;20461;-86
2022/10/22 11:27:36;;;;;;;14.40;13.77;;;31.50;69.30;;;;;;4990937;28;20490;-84
2022/10/22 11:30:12;;;;;;;13.67;13.17;;;32.70;66.80;;;;;;4991415;28;20510;-84
2022/10/22 11:32:40;;;;;;;14.13;13.37;;;33.70;62.80;;;;;;4991285;28;20445;-85
2022/10/22 11:35:12;;;;;;;14.87;14.23;;;33.50;60.30;;;;;;4991577;28;20454;-84
2022/10/22 11:37:40;;;;;;;14.60;14.00;;;33.10;60.70;;;;;;4991738;28;20454;-85
2022/10/22 11:40:08;;;;;;;14.00;13.50;;;33.60;60.60;;;;;;4991390;28;20945;-85
2022/10/22 11:42:38;;;;;;;14.37;13.70;;;33.40;59.90;;;;;;4991449;28;20607;-84
2022/10/22 11:45:27;;;;;;;15.70;14.80;;;33.80;58.30;;;;;;4990963;28;20461;-84
2022/10/22 11:47:59;;;;;;;15.10;14.60;;;34.20;57.90;;;;;;4991644;28;20560;-83
2022/10/22 11:50:27;;;;;;;14.40;13.70;;;35.70;54.00;;;;;;4991560;28;20463;-82
2022/10/22 11:53:01;;;;;;;14.33;13.83;;;34.50;57.20;;;;;;4991205;28;20451;-82
2022/10/22 11:55:46;;;;;;;14.10;13.70;;;34.40;53.40;;;;;;4991430;28;20447;-83
2022/10/22 11:58:32;;;;;;;14.43;13.93;;;32.50;56.10;;;;;;4991343;28;20446;-82
2022/10/22 12:01:21;;;;;;;13.90;13.50;;;31.30;59.90;;;;;;4993290;28;20983;-83
2022/10/22 12:03:50;;;;;;;13.63;13.20;;;31.70;59.60;;;;;;4990936;28;21212;-83
2022/10/22 12:06:21;;;;;;;14.20;13.70;;;31.80;58.10;;;;;;4992739;28;20458;-83
2022/10/22 12:08:56;;;;;;;13.70;13.30;;;32.40;57.60;;;;;;4991169;28;20686;-82
2022/10/22 12:11:27;;;;;;;14.90;14.30;;;32.20;57.60;;;;;;4991105;28;20502;-83
2022/10/22 12:14:02;;;;;;;13.83;13.33;;;31.60;57.90;;;;;;4991399;28;20852;-85
2022/10/22 12:16:37;;;;;;;13.40;12.90;;;30.40;60.10;;;;;;4991561;28;20462;-84
2022/10/22 12:19:12;;;;;;;13.20;12.60;;;28.80;64.70;;;;;;4990377;28;20916;-82
2022/10/22 12:21:41;;;;;;;13.10;12.70;;;27.60;68.30;;;;;;4991048;28;20812;-82
2022/10/22 12:24:13;;;;;;;13.80;13.20;;;26.90;71.10;;;;;;4990583;28;20455;-83
2022/10/22 12:26:40;;;;;;;12.40;12.00;;;26.40;73.00;;;;;;4991332;28;20486;-81
2022/10/22 12:29:12;;;;;;;12.70;12.10;;;26.70;73.10;;;;;;4990065;28;20494;-82
2022/10/22 12:31:43;;;;;;;12.20;11.70;;;26.40;70.80;;;;;;4990248;28;20455;-81
2022/10/22 12:34:14;;;;;;;12.87;12.47;;;26.00;71.20;;;;;;4990131;28;20889;-82
2022/10/22 12:36:41;;;;;;;12.77;12.17;;;24.90;74.30;;;;;;4990508;28;20454;-81
2022/10/22 12:39:12;;;;;;;13.80;12.80;;;24.50;77.80;;;;;;4988922;28;20501;-80
2022/10/22 12:41:39;;;;;;;13.07;11.90;;;24.40;80.10;;;;;;4990283;28;20910;-80
2022/10/22 12:44:06;;;;;;;12.97;12.47;;;24.30;82.10;;;;;;4989991;28;20459;-81
2022/10/22 12:46:35;;;;;;;12.30;11.77;;;24.10;84.10;;;;;;4990003;28;20447;-80
2022/10/22 12:49:06;;;;;;;12.00;11.60;;;24.20;82.50;;;;;;4989637;28;20486;-80
2022/10/22 12:51:33;;;;;;;12.40;11.90;;;23.90;82.30;;;;;;4990044;28;20783;-80
2022/10/22 12:54:04;;;;;;;12.63;12.00;;;25.20;80.80;;;;;;4990046;28;20502;-80
2022/10/22 12:56:33;;;;;;;13.97;13.47;;;27.20;75.10;;;;;;4989975;28;20506;-79
2022/10/22 12:59:02;;;;;;;13.40;12.90;;;28.90;69.50;;;;;;4989991;28;20447;-80
2022/10/22 13:01:36;;;;;;;14.30;13.83;;;29.80;67.00;;;;;;4990065;28;20455;-80
2022/10/22 13:04:16;;;;;;;15.27;14.67;;;29.80;65.80;;;;;;4989514;28;20446;-80
2022/10/22 13:06:44;;;;;;;14.03;13.53;;;29.80;65.00;;;;;;4990360;28;20451;-81
2022/10/22 13:09:16;;;;;;;14.73;14.20;;;28.10;67.60;;;;;;4989717;28;20513;-80
2022/10/22 13:11:49;;;;;;;13.90;13.40;;;26.70;71.20;;;;;;4990091;28;20459;-79
2022/10/22 13:14:21;;;;;;;13.50;12.87;;;25.30;93.20;;;;;;4989104;28;20957;-80
2022/10/22 13:17:13;;;;;;;13.00;12.60;;;25.30;77.30;;;;;;4989184;28;20459;-80
2022/10/22 13:19:45;;;;;;;13.30;12.80;;;24.60;80.20;;;;;;4990069;28;20457;-81
2022/10/22 13:22:33;;;;;;;12.63;12.23;;;23.70;83.30;;;;;;4989422;28;20459;-80
2022/10/22 13:25:22;;;;;;;13.10;12.60;;;23.60;84.00;;;;;;4989269;28;20558;-80
2022/10/22 13:27:53;;;;;;;13.20;12.60;;;23.10;88.20;;;;;;4989608;28;20957;-80
2022/10/22 13:30:22;;;;;;;12.83;12.27;;;22.60;89.20;;;;;;4989166;28;20475;-80
2022/10/22 13:32:51;;;;;;;12.80;12.10;;;22.30;90.60;;;;;;4989113;28;20580;-80
2022/10/22 13:35:20;;;;;;;13.23;12.53;;;22.40;99.90;;;;;;4989536;28;20450;-79
2022/10/22 13:37:47;;;;;;;12.27;11.87;;;22.40;99.90;;;;;;4989100;28;20454;-79
2022/10/22 13:40:15;;;;;;;11.80;11.30;;;22.50;99.90;;;;;;4989598;28;20826;-79
2022/10/22 13:42:41;;;;;;;12.20;11.70;;;22.30;99.90;;;;;;4989748;28;20459;-79
2022/10/22 13:45:10;;;;;;;11.83;11.13;;;;;;;;;;4988507;28;21316;-79
2022/10/22 13:47:37;;;;;;;12.07;11.57;;;22.40;99.90;;;;;;4988725;28;20463;-78
2022/10/22 13:50:11;;;;;;;12.30;11.80;;;22.40;99.90;;;;;;4987190;28;20854;-77
2022/10/22 13:52:41;;;;;;;11.40;11.00;;;22.50;97.60;;;;;;4988659;28;20549;-80
2022/10/22 13:55:20;;;;;;;11.97;11.17;;;22.60;99.90;;;;;;4989340;28;20486;-77
2022/10/22 13:57:47;;;;;;;12.27;11.67;;;22.80;96.60;;;;;;4987000;28;20451;-78
2022/10/22 14:00:18;;;;;;;11.60;10.90;;;22.90;99.90;;;;;;4989329;28;20462;-77
2022/10/22 14:02:47;;;;;;;12.40;11.90;;;23.20;90.60;;;;;;4989104;28;20545;-78
2022/10/22 14:05:16;;;;;;;12.60;12.00;;;23.10;90.70;;;;;;4988798;28;20470;-78
2022/10/22 14:07:43;;;;;;;12.00;11.40;;;23.20;99.90;;;;;;4989115;28;20458;-78
2022/10/22 14:10:18;;;;;;;11.70;11.20;;;22.80;92.80;;;;;;4988615;28;20501;-78
2022/10/22 14:12:45;;;;;;;11.80;11.30;;;;;;;;;;4989171;28;20450;-78
2022/10/22 14:15:15;;;;;;;11.37;10.97;;;22.20;99.90;;;;;;4986976;28;20470;-77
2022/10/22 14:17:45;;;;;;;11.73;11.20;;;22.10;97.40;;;;;;4980148;28;20435;-78
2022/10/22 14:20:18;;;;;;;12.00;11.50;;;22.00;99.90;;;;;;4978320;28;20445;-78
2022/10/22 14:22:45;;;;;;;11.63;11.03;;;;;;;;;;4979069;28;20937;-77
2022/10/22 14:25:15;;;;;;;11.40;10.70;;;21.50;99.90;;;;;;4977989;28;20443;-78
2022/10/22 14:27:42;;;;;;;11.97;11.37;;;21.40;99.90;;;;;;4976718;28;20972;-78